sensor_id;sensor_type;location;lat;lon;timestamp;P1;durP1;ratioP1;P2;durP2;ratioP2
49942;SDS011;36011;53.362;58.948;2024-03-25T00:00:16;12.85;;;9.25;;
49942;SDS011;36011;53.362;58.948;2024-03-25T00:03:22;14.95;;;9.30;;
49942;SDS011;36011;53.362;58.948;2024-03-25T00:06:23;16.52;;;10.32;;
49942;SDS011;36011;53.362;58.948;2024-03-25T00:09:30;14.90;;;9.77;;
49942;SDS011;36011;53.362;58.948;2024-03-25T00:12:36;13.88;;;9.48;;
49942;SDS011;36011;53.362;58.948;2024-03-25T00:15:38;15.88;;;10.38;;
49942;SDS011;36011;53.362;58.948;2024-03-25T00:18:45;14.43;;;8.93;;
49942;SDS011;36011;53.362;58.948;2024-03-25T00:21:51;12.85;;;9.13;;
49942;SDS011;36011;53.362;58.948;2024-03-25T00:24:54;9.75;;;8.02;;
49942;SDS011;36011;53.362;58.948;2024-03-25T00:27:56;14.27;;;9.38;;
49942;SDS011;36011;53.362;58.948;2024-03-25T00:31:01;14.05;;;9.35;;
49942;SDS011;36011;53.362;58.948;2024-03-25T00:34:07;13.30;;;8.80;;
49942;SDS011;36011;53.362;58.948;2024-03-25T00:37:09;11.65;;;8.40;;
49942;SDS011;36011;53.362;58.948;2024-03-25T00:40:12;15.32;;;10.57;;
49942;SDS011;36011;53.362;58.948;2024-03-25T00:43:16;13.38;;;9.48;;
49942;SDS011;36011;53.362;58.948;2024-03-25T00:46:20;12.40;;;8.25;;
49942;SDS011;36011;53.362;58.948;2024-03-25T00:49:26;15.85;;;10.40;;
49942;SDS011;36011;53.362;58.948;2024-03-25T00:52:35;15.80;;;9.43;;
49942;SDS011;36011;53.362;58.948;2024-03-25T00:55:38;14.57;;;10.13;;
49942;SDS011;36011;53.362;58.948;2024-03-25T00:58:45;15.23;;;9.95;;
49942;SDS011;36011;53.362;58.948;2024-03-25T01:01:49;13.50;;;9.65;;
49942;SDS011;36011;53.362;58.948;2024-03-25T01:04:54;12.32;;;9.63;;
49942;SDS011;36011;53.362;58.948;2024-03-25T01:08:00;16.00;;;10.27;;
49942;SDS011;36011;53.362;58.948;2024-03-25T01:11:01;16.73;;;10.90;;
49942;SDS011;36011;53.362;58.948;2024-03-25T01:14:07;14.07;;;10.38;;
49942;SDS011;36011;53.362;58.948;2024-03-25T01:17:08;15.55;;;10.15;;
49942;SDS011;36011;53.362;58.948;2024-03-25T01:20:12;12.45;;;9.50;;
49942;SDS011;36011;53.362;58.948;2024-03-25T01:23:19;14.32;;;8.60;;
49942;SDS011;36011;53.362;58.948;2024-03-25T01:26:23;14.77;;;9.85;;
49942;SDS011;36011;53.362;58.948;2024-03-25T01:29:24;15.23;;;10.02;;
49942;SDS011;36011;53.362;58.948;2024-03-25T01:32:28;15.70;;;9.65;;
49942;SDS011;36011;53.362;58.948;2024-03-25T01:35:29;17.40;;;10.80;;
49942;SDS011;36011;53.362;58.948;2024-03-25T01:38:33;16.67;;;11.15;;
49942;SDS011;36011;53.362;58.948;2024-03-25T01:41:37;12.13;;;9.15;;
49942;SDS011;36011;53.362;58.948;2024-03-25T01:44:41;15.52;;;9.35;;
49942;SDS011;36011;53.362;58.948;2024-03-25T01:47:45;13.68;;;10.25;;
49942;SDS011;36011;53.362;58.948;2024-03-25T01:50:47;14.98;;;9.77;;
49942;SDS011;36011;53.362;58.948;2024-03-25T01:53:57;12.57;;;9.02;;
49942;SDS011;36011;53.362;58.948;2024-03-25T01:57:03;13.43;;;9.25;;
49942;SDS011;36011;53.362;58.948;2024-03-25T02:00:07;12.90;;;8.70;;
49942;SDS011;36011;53.362;58.948;2024-03-25T02:03:09;14.73;;;10.15;;
49942;SDS011;36011;53.362;58.948;2024-03-25T02:06:12;18.27;;;11.75;;
49942;SDS011;36011;53.362;58.948;2024-03-25T02:09:21;14.65;;;10.20;;
49942;SDS011;36011;53.362;58.948;2024-03-25T02:12:27;16.52;;;9.52;;
49942;SDS011;36011;53.362;58.948;2024-03-25T02:15:31;14.20;;;9.70;;
49942;SDS011;36011;53.362;58.948;2024-03-25T02:18:33;14.98;;;9.70;;
49942;SDS011;36011;53.362;58.948;2024-03-25T02:21:35;14.25;;;10.13;;
49942;SDS011;36011;53.362;58.948;2024-03-25T02:24:37;16.58;;;10.52;;
49942;SDS011;36011;53.362;58.948;2024-03-25T02:27:40;22.98;;;12.88;;
49942;SDS011;36011;53.362;58.948;2024-03-25T02:30:46;14.98;;;10.32;;
49942;SDS011;36011;53.362;58.948;2024-03-25T02:36:53;12.52;;;8.60;;
49942;SDS011;36011;53.362;58.948;2024-03-25T02:39:58;10.70;;;7.65;;
49942;SDS011;36011;53.362;58.948;2024-03-25T02:43:05;15.50;;;10.55;;
49942;SDS011;36011;53.362;58.948;2024-03-25T02:46:08;26.98;;;15.75;;
49942;SDS011;36011;53.362;58.948;2024-03-25T02:49:09;31.63;;;18.25;;
49942;SDS011;36011;53.362;58.948;2024-03-25T02:52:11;14.90;;;10.23;;
49942;SDS011;36011;53.362;58.948;2024-03-25T02:55:17;13.55;;;9.88;;
49942;SDS011;36011;53.362;58.948;2024-03-25T02:58:19;14.07;;;9.10;;
49942;SDS011;36011;53.362;58.948;2024-03-25T03:01:21;13.82;;;8.27;;
49942;SDS011;36011;53.362;58.948;2024-03-25T03:04:25;13.48;;;8.98;;
49942;SDS011;36011;53.362;58.948;2024-03-25T03:07:27;15.18;;;9.75;;
49942;SDS011;36011;53.362;58.948;2024-03-25T03:10:30;18.02;;;10.13;;
49942;SDS011;36011;53.362;58.948;2024-03-25T03:13:32;12.02;;;8.05;;
49942;SDS011;36011;53.362;58.948;2024-03-25T03:16:39;16.00;;;10.00;;
49942;SDS011;36011;53.362;58.948;2024-03-25T03:19:45;11.65;;;8.05;;
49942;SDS011;36011;53.362;58.948;2024-03-25T03:22:47;13.07;;;8.85;;
49942;SDS011;36011;53.362;58.948;2024-03-25T03:25:51;12.38;;;8.30;;
49942;SDS011;36011;53.362;58.948;2024-03-25T03:28:59;14.30;;;9.05;;
49942;SDS011;36011;53.362;58.948;2024-03-25T03:32:03;10.90;;;7.68;;
49942;SDS011;36011;53.362;58.948;2024-03-25T03:35:05;12.85;;;8.10;;
49942;SDS011;36011;53.362;58.948;2024-03-25T03:38:10;42.00;;;22.27;;
49942;SDS011;36011;53.362;58.948;2024-03-25T03:41:12;14.65;;;10.23;;
49942;SDS011;36011;53.362;58.948;2024-03-25T03:44:18;12.18;;;7.72;;
49942;SDS011;36011;53.362;58.948;2024-03-25T03:47:25;10.15;;;8.02;;
49942;SDS011;36011;53.362;58.948;2024-03-25T03:50:26;14.50;;;8.65;;
49942;SDS011;36011;53.362;58.948;2024-03-25T03:53:33;13.82;;;8.73;;
49942;SDS011;36011;53.362;58.948;2024-03-25T03:56:37;10.05;;;7.63;;
49942;SDS011;36011;53.362;58.948;2024-03-25T03:59:42;10.25;;;8.40;;
49942;SDS011;36011;53.362;58.948;2024-03-25T04:02:49;11.05;;;7.97;;
49942;SDS011;36011;53.362;58.948;2024-03-25T04:05:53;9.65;;;7.85;;
49942;SDS011;36011;53.362;58.948;2024-03-25T04:08:57;11.07;;;7.80;;
49942;SDS011;36011;53.362;58.948;2024-03-25T04:12:02;11.43;;;8.52;;
49942;SDS011;36011;53.362;58.948;2024-03-25T04:15:03;9.40;;;6.38;;
49942;SDS011;36011;53.362;58.948;2024-03-25T04:18:06;11.48;;;7.50;;
49942;SDS011;36011;53.362;58.948;2024-03-25T04:21:13;13.15;;;8.43;;
49942;SDS011;36011;53.362;58.948;2024-03-25T04:24:14;16.77;;;10.40;;
49942;SDS011;36011;53.362;58.948;2024-03-25T04:27:19;9.75;;;6.10;;
49942;SDS011;36011;53.362;58.948;2024-03-25T04:30:25;11.00;;;7.93;;
49942;SDS011;36011;53.362;58.948;2024-03-25T04:33:34;10.65;;;7.50;;
49942;SDS011;36011;53.362;58.948;2024-03-25T04:36:40;10.98;;;7.68;;
49942;SDS011;36011;53.362;58.948;2024-03-25T04:39:47;13.45;;;7.90;;
49942;SDS011;36011;53.362;58.948;2024-03-25T04:42:49;9.82;;;7.32;;
49942;SDS011;36011;53.362;58.948;2024-03-25T04:45:54;11.48;;;7.47;;
49942;SDS011;36011;53.362;58.948;2024-03-25T04:48:55;11.05;;;7.82;;
49942;SDS011;36011;53.362;58.948;2024-03-25T04:51:59;10.73;;;7.55;;
49942;SDS011;36011;53.362;58.948;2024-03-25T04:55:00;11.45;;;7.88;;
49942;SDS011;36011;53.362;58.948;2024-03-25T04:58:08;10.73;;;7.18;;
49942;SDS011;36011;53.362;58.948;2024-03-25T05:01:09;8.73;;;6.20;;
49942;SDS011;36011;53.362;58.948;2024-03-25T05:04:16;8.15;;;6.35;;
49942;SDS011;36011;53.362;58.948;2024-03-25T05:07:21;9.70;;;6.97;;
49942;SDS011;36011;53.362;58.948;2024-03-25T05:10:25;9.05;;;7.10;;
49942;SDS011;36011;53.362;58.948;2024-03-25T05:13:26;7.32;;;6.10;;
49942;SDS011;36011;53.362;58.948;2024-03-25T05:16:34;8.25;;;5.95;;
49942;SDS011;36011;53.362;58.948;2024-03-25T05:19:41;9.05;;;6.50;;
49942;SDS011;36011;53.362;58.948;2024-03-25T05:22:50;10.25;;;7.28;;
49942;SDS011;36011;53.362;58.948;2024-03-25T05:25:58;7.60;;;6.20;;
49942;SDS011;36011;53.362;58.948;2024-03-25T05:29:04;9.50;;;6.72;;
49942;SDS011;36011;53.362;58.948;2024-03-25T05:32:09;7.28;;;5.85;;
49942;SDS011;36011;53.362;58.948;2024-03-25T05:35:15;7.53;;;6.10;;
49942;SDS011;36011;53.362;58.948;2024-03-25T05:38:19;9.18;;;7.05;;
49942;SDS011;36011;53.362;58.948;2024-03-25T05:41:28;8.15;;;6.25;;
49942;SDS011;36011;53.362;58.948;2024-03-25T05:44:30;6.85;;;5.53;;
49942;SDS011;36011;53.362;58.948;2024-03-25T05:47:32;7.93;;;5.95;;
49942;SDS011;36011;53.362;58.948;2024-03-25T05:50:34;11.02;;;7.32;;
49942;SDS011;36011;53.362;58.948;2024-03-25T05:53:38;9.13;;;5.80;;
49942;SDS011;36011;53.362;58.948;2024-03-25T05:56:39;9.05;;;5.88;;
49942;SDS011;36011;53.362;58.948;2024-03-25T05:59:41;8.95;;;6.25;;
49942;SDS011;36011;53.362;58.948;2024-03-25T06:02:47;9.93;;;5.75;;
49942;SDS011;36011;53.362;58.948;2024-03-25T06:05:51;6.45;;;4.70;;
49942;SDS011;36011;53.362;58.948;2024-03-25T06:08:54;6.35;;;4.45;;
49942;SDS011;36011;53.362;58.948;2024-03-25T06:12:01;8.65;;;5.00;;
49942;SDS011;36011;53.362;58.948;2024-03-25T06:15:06;6.22;;;4.60;;
49942;SDS011;36011;53.362;58.948;2024-03-25T06:18:11;4.25;;;3.85;;
49942;SDS011;36011;53.362;58.948;2024-03-25T06:21:19;4.45;;;3.75;;
49942;SDS011;36011;53.362;58.948;2024-03-25T06:24:26;7.25;;;3.88;;
49942;SDS011;36011;53.362;58.948;2024-03-25T06:27:30;3.97;;;3.25;;
49942;SDS011;36011;53.362;58.948;2024-03-25T06:30:34;4.80;;;4.40;;
49942;SDS011;36011;53.362;58.948;2024-03-25T06:33:58;4.43;;;3.50;;
49942;SDS011;36011;53.362;58.948;2024-03-25T06:37:23;4.28;;;3.22;;
49942;SDS011;36011;53.362;58.948;2024-03-25T06:40:30;4.05;;;3.60;;
49942;SDS011;36011;53.362;58.948;2024-03-25T06:43:36;4.75;;;4.13;;
49942;SDS011;36011;53.362;58.948;2024-03-25T06:46:44;4.63;;;4.22;;
49942;SDS011;36011;53.362;58.948;2024-03-25T06:49:50;6.20;;;5.15;;
49942;SDS011;36011;53.362;58.948;2024-03-25T06:52:54;7.40;;;5.65;;
49942;SDS011;36011;53.362;58.948;2024-03-25T06:55:58;4.35;;;3.22;;
49942;SDS011;36011;53.362;58.948;2024-03-25T06:59:05;5.13;;;4.10;;
49942;SDS011;36011;53.362;58.948;2024-03-25T07:02:09;7.07;;;4.07;;
49942;SDS011;36011;53.362;58.948;2024-03-25T07:05:14;6.32;;;4.05;;
49942;SDS011;36011;53.362;58.948;2024-03-25T07:08:18;6.53;;;4.32;;
49942;SDS011;36011;53.362;58.948;2024-03-25T07:11:22;4.90;;;4.05;;
49942;SDS011;36011;53.362;58.948;2024-03-25T07:14:26;3.95;;;3.55;;
49942;SDS011;36011;53.362;58.948;2024-03-25T07:17:30;4.20;;;3.80;;
49942;SDS011;36011;53.362;58.948;2024-03-25T07:20:32;5.55;;;4.03;;
49942;SDS011;36011;53.362;58.948;2024-03-25T07:23:40;5.32;;;3.38;;
49942;SDS011;36011;53.362;58.948;2024-03-25T07:26:48;4.30;;;3.90;;
49942;SDS011;36011;53.362;58.948;2024-03-25T07:29:53;3.25;;;2.95;;
49942;SDS011;36011;53.362;58.948;2024-03-25T07:32:56;5.25;;;4.70;;
49942;SDS011;36011;53.362;58.948;2024-03-25T07:36:01;4.78;;;3.75;;
49942;SDS011;36011;53.362;58.948;2024-03-25T07:39:05;7.97;;;4.70;;
49942;SDS011;36011;53.362;58.948;2024-03-25T07:42:14;3.60;;;2.83;;
49942;SDS011;36011;53.362;58.948;2024-03-25T07:45:18;5.97;;;4.45;;
49942;SDS011;36011;53.362;58.948;2024-03-25T07:48:22;5.53;;;3.72;;
49942;SDS011;36011;53.362;58.948;2024-03-25T07:51:29;5.22;;;3.53;;
49942;SDS011;36011;53.362;58.948;2024-03-25T07:54:36;4.28;;;2.97;;
49942;SDS011;36011;53.362;58.948;2024-03-25T07:57:43;3.28;;;2.55;;
49942;SDS011;36011;53.362;58.948;2024-03-25T08:00:47;4.25;;;2.65;;
49942;SDS011;36011;53.362;58.948;2024-03-25T08:03:56;5.93;;;3.50;;
49942;SDS011;36011;53.362;58.948;2024-03-25T08:06:57;4.43;;;3.20;;
49942;SDS011;36011;53.362;58.948;2024-03-25T08:10:03;3.95;;;2.95;;
49942;SDS011;36011;53.362;58.948;2024-03-25T08:13:06;5.28;;;3.35;;
49942;SDS011;36011;53.362;58.948;2024-03-25T08:16:10;4.55;;;3.50;;
49942;SDS011;36011;53.362;58.948;2024-03-25T08:19:14;3.97;;;3.58;;
49942;SDS011;36011;53.362;58.948;2024-03-25T08:22:18;7.70;;;3.88;;
49942;SDS011;36011;53.362;58.948;2024-03-25T08:25:23;5.85;;;3.78;;
49942;SDS011;36011;53.362;58.948;2024-03-25T08:28:30;3.90;;;3.55;;
49942;SDS011;36011;53.362;58.948;2024-03-25T08:31:31;4.00;;;3.07;;
49942;SDS011;36011;53.362;58.948;2024-03-25T08:34:36;4.30;;;3.33;;
49942;SDS011;36011;53.362;58.948;2024-03-25T08:37:37;4.17;;;3.47;;
49942;SDS011;36011;53.362;58.948;2024-03-25T08:40:44;5.00;;;4.43;;
49942;SDS011;36011;53.362;58.948;2024-03-25T08:43:48;5.55;;;3.78;;
49942;SDS011;36011;53.362;58.948;2024-03-25T08:46:49;4.00;;;3.40;;
49942;SDS011;36011;53.362;58.948;2024-03-25T08:49:55;4.05;;;3.35;;
49942;SDS011;36011;53.362;58.948;2024-03-25T08:53:04;3.75;;;3.20;;
49942;SDS011;36011;53.362;58.948;2024-03-25T08:56:05;3.75;;;3.08;;
49942;SDS011;36011;53.362;58.948;2024-03-25T08:59:10;4.07;;;3.40;;
49942;SDS011;36011;53.362;58.948;2024-03-25T09:02:19;4.40;;;3.38;;
49942;SDS011;36011;53.362;58.948;2024-03-25T09:05:22;7.43;;;4.80;;
49942;SDS011;36011;53.362;58.948;2024-03-25T09:08:26;9.45;;;4.18;;
49942;SDS011;36011;53.362;58.948;2024-03-25T09:11:40;5.22;;;3.67;;
49942;SDS011;36011;53.362;58.948;2024-03-25T09:14:41;3.35;;;3.00;;
49942;SDS011;36011;53.362;58.948;2024-03-25T09:17:46;2.88;;;2.58;;
49942;SDS011;36011;53.362;58.948;2024-03-25T09:20:48;4.78;;;3.80;;
49942;SDS011;36011;53.362;58.948;2024-03-25T09:23:50;3.05;;;2.75;;
49942;SDS011;36011;53.362;58.948;2024-03-25T09:26:57;4.97;;;3.67;;
49942;SDS011;36011;53.362;58.948;2024-03-25T09:30:01;3.38;;;2.40;;
49942;SDS011;36011;53.362;58.948;2024-03-25T09:33:06;6.82;;;3.38;;
49942;SDS011;36011;53.362;58.948;2024-03-25T09:36:15;5.63;;;2.95;;
49942;SDS011;36011;53.362;58.948;2024-03-25T09:39:17;4.40;;;3.00;;
49942;SDS011;36011;53.362;58.948;2024-03-25T09:42:42;2.80;;;2.60;;
49942;SDS011;36011;53.362;58.948;2024-03-25T09:45:48;3.72;;;3.33;;
49942;SDS011;36011;53.362;58.948;2024-03-25T09:48:56;2.97;;;2.50;;
49942;SDS011;36011;53.362;58.948;2024-03-25T09:52:02;4.50;;;3.50;;
49942;SDS011;36011;53.362;58.948;2024-03-25T09:55:03;3.67;;;3.15;;
49942;SDS011;36011;53.362;58.948;2024-03-25T09:58:08;4.00;;;3.40;;
49942;SDS011;36011;53.362;58.948;2024-03-25T10:01:14;4.13;;;3.72;;
49942;SDS011;36011;53.362;58.948;2024-03-25T10:04:16;3.63;;;3.25;;
49942;SDS011;36011;53.362;58.948;2024-03-25T10:07:24;5.25;;;3.97;;
49942;SDS011;36011;53.362;58.948;2024-03-25T10:10:28;7.00;;;3.53;;
49942;SDS011;36011;53.362;58.948;2024-03-25T10:13:31;7.47;;;3.78;;
49942;SDS011;36011;53.362;58.948;2024-03-25T10:16:37;5.53;;;4.28;;
49942;SDS011;36011;53.362;58.948;2024-03-25T10:19:44;6.15;;;4.82;;
49942;SDS011;36011;53.362;58.948;2024-03-25T10:22:45;5.60;;;4.28;;
49942;SDS011;36011;53.362;58.948;2024-03-25T10:25:53;7.82;;;4.65;;
49942;SDS011;36011;53.362;58.948;2024-03-25T10:29:01;5.80;;;5.00;;
49942;SDS011;36011;53.362;58.948;2024-03-25T10:32:14;4.32;;;3.92;;
49942;SDS011;36011;53.362;58.948;2024-03-25T10:35:21;5.30;;;4.78;;
49942;SDS011;36011;53.362;58.948;2024-03-25T10:38:29;6.00;;;4.53;;
49942;SDS011;36011;53.362;58.948;2024-03-25T10:41:36;5.25;;;3.95;;
49942;SDS011;36011;53.362;58.948;2024-03-25T10:44:38;6.50;;;4.15;;
49942;SDS011;36011;53.362;58.948;2024-03-25T10:47:45;4.32;;;3.47;;
49942;SDS011;36011;53.362;58.948;2024-03-25T10:50:53;5.85;;;4.38;;
49942;SDS011;36011;53.362;58.948;2024-03-25T10:54:00;5.38;;;4.00;;
49942;SDS011;36011;53.362;58.948;2024-03-25T10:57:07;6.00;;;4.05;;
49942;SDS011;36011;53.362;58.948;2024-03-25T11:00:14;4.88;;;3.97;;
49942;SDS011;36011;53.362;58.948;2024-03-25T11:03:19;7.00;;;4.32;;
49942;SDS011;36011;53.362;58.948;2024-03-25T11:06:24;6.10;;;4.15;;
49942;SDS011;36011;53.362;58.948;2024-03-25T11:09:26;4.28;;;3.88;;
49942;SDS011;36011;53.362;58.948;2024-03-25T11:12:36;4.45;;;3.83;;
49942;SDS011;36011;53.362;58.948;2024-03-25T11:15:42;5.53;;;4.03;;
49942;SDS011;36011;53.362;58.948;2024-03-25T11:18:50;4.35;;;3.72;;
49942;SDS011;36011;53.362;58.948;2024-03-25T11:22:06;5.28;;;3.40;;
49942;SDS011;36011;53.362;58.948;2024-03-25T11:25:11;4.72;;;4.00;;
49942;SDS011;36011;53.362;58.948;2024-03-25T11:28:26;6.53;;;4.57;;
49942;SDS011;36011;53.362;58.948;2024-03-25T11:31:29;6.07;;;5.10;;
49942;SDS011;36011;53.362;58.948;2024-03-25T11:34:35;5.70;;;4.85;;
49942;SDS011;36011;53.362;58.948;2024-03-25T11:37:42;6.65;;;4.75;;
49942;SDS011;36011;53.362;58.948;2024-03-25T11:40:44;4.70;;;4.25;;
49942;SDS011;36011;53.362;58.948;2024-03-25T11:43:46;4.43;;;3.83;;
49942;SDS011;36011;53.362;58.948;2024-03-25T11:46:50;6.15;;;4.32;;
49942;SDS011;36011;53.362;58.948;2024-03-25T11:50:01;5.35;;;4.10;;
49942;SDS011;36011;53.362;58.948;2024-03-25T11:53:12;5.85;;;4.15;;
49942;SDS011;36011;53.362;58.948;2024-03-25T11:56:16;18.88;;;11.90;;
49942;SDS011;36011;53.362;58.948;2024-03-25T11:59:49;11.07;;;7.75;;
49942;SDS011;36011;53.362;58.948;2024-03-25T12:03:00;6.22;;;4.75;;
49942;SDS011;36011;53.362;58.948;2024-03-25T12:06:29;8.25;;;5.20;;
49942;SDS011;36011;53.362;58.948;2024-03-25T12:09:39;5.55;;;4.75;;
49942;SDS011;36011;53.362;58.948;2024-03-25T12:13:01;4.30;;;3.70;;
49942;SDS011;36011;53.362;58.948;2024-03-25T12:16:03;6.63;;;3.92;;
49942;SDS011;36011;53.362;58.948;2024-03-25T12:19:08;5.57;;;4.20;;
49942;SDS011;36011;53.362;58.948;2024-03-25T12:22:09;5.95;;;4.53;;
49942;SDS011;36011;53.362;58.948;2024-03-25T12:25:13;8.80;;;5.03;;
49942;SDS011;36011;53.362;58.948;2024-03-25T12:28:15;7.07;;;4.97;;
49942;SDS011;36011;53.362;58.948;2024-03-25T12:31:23;9.60;;;6.15;;
49942;SDS011;36011;53.362;58.948;2024-03-25T12:34:44;5.47;;;4.90;;
49942;SDS011;36011;53.362;58.948;2024-03-25T12:37:51;6.50;;;5.65;;
49942;SDS011;36011;53.362;58.948;2024-03-25T12:41:05;7.88;;;5.10;;
49942;SDS011;36011;53.362;58.948;2024-03-25T12:44:13;6.43;;;5.22;;
49942;SDS011;36011;53.362;58.948;2024-03-25T12:47:15;13.60;;;7.55;;
49942;SDS011;36011;53.362;58.948;2024-03-25T12:53:25;9.57;;;6.80;;
49942;SDS011;36011;53.362;58.948;2024-03-25T12:56:30;9.43;;;6.28;;
49942;SDS011;36011;53.362;58.948;2024-03-25T12:59:35;7.15;;;5.55;;
49942;SDS011;36011;53.362;58.948;2024-03-25T13:02:39;10.88;;;6.22;;
49942;SDS011;36011;53.362;58.948;2024-03-25T13:05:49;8.50;;;4.72;;
49942;SDS011;36011;53.362;58.948;2024-03-25T13:08:57;7.00;;;4.78;;
49942;SDS011;36011;53.362;58.948;2024-03-25T13:12:02;8.68;;;5.13;;
49942;SDS011;36011;53.362;58.948;2024-03-25T13:15:07;7.75;;;5.80;;
49942;SDS011;36011;53.362;58.948;2024-03-25T13:18:13;8.75;;;5.32;;
49942;SDS011;36011;53.362;58.948;2024-03-25T13:21:20;5.97;;;5.20;;
49942;SDS011;36011;53.362;58.948;2024-03-25T13:24:26;7.25;;;5.05;;
49942;SDS011;36011;53.362;58.948;2024-03-25T13:27:27;11.80;;;7.05;;
49942;SDS011;36011;53.362;58.948;2024-03-25T13:30:29;11.13;;;7.43;;
49942;SDS011;36011;53.362;58.948;2024-03-25T13:33:37;9.55;;;5.82;;
49942;SDS011;36011;53.362;58.948;2024-03-25T13:36:38;8.15;;;5.63;;
49942;SDS011;36011;53.362;58.948;2024-03-25T13:42:49;10.00;;;5.78;;
49942;SDS011;36011;53.362;58.948;2024-03-25T13:45:56;8.18;;;5.93;;
49942;SDS011;36011;53.362;58.948;2024-03-25T13:49:01;10.82;;;5.68;;
49942;SDS011;36011;53.362;58.948;2024-03-25T13:52:06;13.23;;;6.78;;
49942;SDS011;36011;53.362;58.948;2024-03-25T13:55:07;11.20;;;6.70;;
49942;SDS011;36011;53.362;58.948;2024-03-25T13:58:09;9.10;;;5.97;;
49942;SDS011;36011;53.362;58.948;2024-03-25T14:01:13;8.60;;;6.15;;
49942;SDS011;36011;53.362;58.948;2024-03-25T14:04:20;9.07;;;5.80;;
49942;SDS011;36011;53.362;58.948;2024-03-25T14:07:27;9.05;;;6.45;;
49942;SDS011;36011;53.362;58.948;2024-03-25T14:10:28;12.23;;;6.88;;
49942;SDS011;36011;53.362;58.948;2024-03-25T14:13:33;8.52;;;6.32;;
49942;SDS011;36011;53.362;58.948;2024-03-25T14:16:34;10.05;;;6.80;;
49942;SDS011;36011;53.362;58.948;2024-03-25T14:19:37;10.75;;;6.28;;
49942;SDS011;36011;53.362;58.948;2024-03-25T14:22:45;8.50;;;5.50;;
49942;SDS011;36011;53.362;58.948;2024-03-25T14:25:50;11.85;;;7.85;;
49942;SDS011;36011;53.362;58.948;2024-03-25T14:28:52;8.73;;;6.43;;
49942;SDS011;36011;53.362;58.948;2024-03-25T14:31:53;11.50;;;6.75;;
49942;SDS011;36011;53.362;58.948;2024-03-25T14:34:55;11.45;;;7.35;;
49942;SDS011;36011;53.362;58.948;2024-03-25T14:37:59;11.40;;;7.75;;
49942;SDS011;36011;53.362;58.948;2024-03-25T14:41:06;11.70;;;8.02;;
49942;SDS011;36011;53.362;58.948;2024-03-25T14:44:12;23.05;;;14.65;;
49942;SDS011;36011;53.362;58.948;2024-03-25T14:47:15;17.60;;;10.55;;
49942;SDS011;36011;53.362;58.948;2024-03-25T14:50:19;11.90;;;8.38;;
49942;SDS011;36011;53.362;58.948;2024-03-25T14:53:20;12.77;;;7.65;;
49942;SDS011;36011;53.362;58.948;2024-03-25T14:56:22;12.52;;;8.43;;
49942;SDS011;36011;53.362;58.948;2024-03-25T14:59:29;13.93;;;9.25;;
49942;SDS011;36011;53.362;58.948;2024-03-25T15:02:33;12.82;;;8.43;;
49942;SDS011;36011;53.362;58.948;2024-03-25T15:05:39;15.25;;;8.63;;
49942;SDS011;36011;53.362;58.948;2024-03-25T15:08:43;12.10;;;8.13;;
49942;SDS011;36011;53.362;58.948;2024-03-25T15:11:47;12.77;;;7.82;;
49942;SDS011;36011;53.362;58.948;2024-03-25T15:14:52;16.60;;;9.05;;
49942;SDS011;36011;53.362;58.948;2024-03-25T15:17:53;19.85;;;10.48;;
49942;SDS011;36011;53.362;58.948;2024-03-25T15:21:01;19.60;;;11.18;;
49942;SDS011;36011;53.362;58.948;2024-03-25T15:24:08;12.80;;;7.90;;
49942;SDS011;36011;53.362;58.948;2024-03-25T15:27:14;15.68;;;9.68;;
49942;SDS011;36011;53.362;58.948;2024-03-25T15:30:18;15.13;;;9.45;;
49942;SDS011;36011;53.362;58.948;2024-03-25T15:33:22;16.02;;;9.30;;
49942;SDS011;36011;53.362;58.948;2024-03-25T15:36:24;15.40;;;8.80;;
49942;SDS011;36011;53.362;58.948;2024-03-25T15:39:29;14.27;;;9.52;;
49942;SDS011;36011;53.362;58.948;2024-03-25T15:42:36;15.57;;;10.38;;
49942;SDS011;36011;53.362;58.948;2024-03-25T15:45:40;15.18;;;9.35;;
49942;SDS011;36011;53.362;58.948;2024-03-25T15:48:44;13.30;;;8.23;;
49942;SDS011;36011;53.362;58.948;2024-03-25T15:51:49;15.38;;;9.65;;
49942;SDS011;36011;53.362;58.948;2024-03-25T15:54:53;15.02;;;9.15;;
49942;SDS011;36011;53.362;58.948;2024-03-25T15:58:00;12.73;;;8.77;;
49942;SDS011;36011;53.362;58.948;2024-03-25T16:01:04;19.15;;;10.35;;
49942;SDS011;36011;53.362;58.948;2024-03-25T16:04:08;16.60;;;10.02;;
49942;SDS011;36011;53.362;58.948;2024-03-25T16:07:15;10.00;;;6.47;;
49942;SDS011;36011;53.362;58.948;2024-03-25T16:10:21;14.90;;;8.68;;
49942;SDS011;36011;53.362;58.948;2024-03-25T16:13:33;13.85;;;9.40;;
49942;SDS011;36011;53.362;58.948;2024-03-25T16:19:45;13.88;;;8.13;;
49942;SDS011;36011;53.362;58.948;2024-03-25T16:22:49;14.40;;;8.25;;
49942;SDS011;36011;53.362;58.948;2024-03-25T16:25:51;14.70;;;8.90;;
49942;SDS011;36011;53.362;58.948;2024-03-25T16:28:56;15.25;;;9.27;;
49942;SDS011;36011;53.362;58.948;2024-03-25T16:31:58;17.23;;;8.80;;
49942;SDS011;36011;53.362;58.948;2024-03-25T16:35:04;14.98;;;8.25;;
49942;SDS011;36011;53.362;58.948;2024-03-25T16:38:10;13.20;;;7.68;;
49942;SDS011;36011;53.362;58.948;2024-03-25T16:41:15;17.13;;;9.60;;
49942;SDS011;36011;53.362;58.948;2024-03-25T16:44:19;14.35;;;8.85;;
49942;SDS011;36011;53.362;58.948;2024-03-25T16:47:25;14.95;;;9.75;;
49942;SDS011;36011;53.362;58.948;2024-03-25T16:50:29;12.95;;;8.18;;
49942;SDS011;36011;53.362;58.948;2024-03-25T16:53:36;13.35;;;8.63;;
49942;SDS011;36011;53.362;58.948;2024-03-25T16:56:38;26.58;;;14.38;;
49942;SDS011;36011;53.362;58.948;2024-03-25T16:59:45;14.90;;;9.43;;
49942;SDS011;36011;53.362;58.948;2024-03-25T17:02:48;19.60;;;10.13;;
49942;SDS011;36011;53.362;58.948;2024-03-25T17:05:54;18.52;;;10.98;;
49942;SDS011;36011;53.362;58.948;2024-03-25T17:09:01;14.02;;;9.65;;
49942;SDS011;36011;53.362;58.948;2024-03-25T17:12:03;16.55;;;10.45;;
49942;SDS011;36011;53.362;58.948;2024-03-25T17:15:07;22.15;;;11.43;;
49942;SDS011;36011;53.362;58.948;2024-03-25T17:18:11;20.67;;;13.77;;
49942;SDS011;36011;53.362;58.948;2024-03-25T17:21:20;17.80;;;10.20;;
49942;SDS011;36011;53.362;58.948;2024-03-25T17:24:27;15.73;;;9.25;;
49942;SDS011;36011;53.362;58.948;2024-03-25T17:27:32;15.82;;;9.65;;
49942;SDS011;36011;53.362;58.948;2024-03-25T17:30:37;19.33;;;10.07;;
49942;SDS011;36011;53.362;58.948;2024-03-25T17:33:43;16.08;;;9.48;;
49942;SDS011;36011;53.362;58.948;2024-03-25T17:36:46;17.80;;;10.60;;
49942;SDS011;36011;53.362;58.948;2024-03-25T17:39:51;19.33;;;10.13;;
49942;SDS011;36011;53.362;58.948;2024-03-25T17:43:01;15.30;;;9.85;;
49942;SDS011;36011;53.362;58.948;2024-03-25T17:46:11;17.10;;;9.35;;
49942;SDS011;36011;53.362;58.948;2024-03-25T17:49:17;15.32;;;9.30;;
49942;SDS011;36011;53.362;58.948;2024-03-25T17:52:21;17.33;;;9.65;;
49942;SDS011;36011;53.362;58.948;2024-03-25T17:55:27;16.35;;;9.20;;
49942;SDS011;36011;53.362;58.948;2024-03-25T17:58:34;16.67;;;9.95;;
49942;SDS011;36011;53.362;58.948;2024-03-25T18:01:40;16.67;;;10.52;;
49942;SDS011;36011;53.362;58.948;2024-03-25T18:04:44;17.77;;;11.00;;
49942;SDS011;36011;53.362;58.948;2024-03-25T18:07:52;16.90;;;10.27;;
49942;SDS011;36011;53.362;58.948;2024-03-25T18:10:58;16.05;;;9.73;;
49942;SDS011;36011;53.362;58.948;2024-03-25T18:14:02;15.60;;;9.40;;
49942;SDS011;36011;53.362;58.948;2024-03-25T18:17:08;38.65;;;18.77;;
49942;SDS011;36011;53.362;58.948;2024-03-25T18:20:15;20.27;;;10.43;;